Terminal Aerodrome Forecast
Issued by NWS

Home | Current Version | Previous Version | Text Only | Print | Product List | Glossary On
Versions: 1 2 3 4 5 6 7 8 9 10 11 12 13
000
FTUS45 KSLC 291120
TAFPVU
TAF
KPVU 291120Z 2912/3012 13008KT P6SM SCT080 BKN120
     FM292100 19010KT P6SM VCSH SCT080 BKN110
     FM300100 15005KT P6SM FEW090 BKN150
      AMD LTD TO CLD VIS AND WIND=

USA.gov is the U.S. government's official web portal to all federal, state and local government web resources and services.